Terminal Aerodrome Forecast
Issued by NWS

Home | Current Version | Previous Version | Text Only | Print | Product List | Glossary On
Versions: 1 2 3 4 5 6 7 8 9 10 11 12
000
FTUS44 KEPZ 142336
TAFLRU
TAF
KLRU 142336Z 1500/1524 06007KT P6SM SCT100 BKN200
     FM150200 08008KT P6SM SCT100 BKN200
     FM151800 15004KT P6SM SKC=

USA.gov is the U.S. government's official web portal to all federal, state and local government web resources and services.